| time (UTC) | temp F | wind direction | speed knots | gust knots | rain 1hr in | rain 24hr in | rain mn in | humidity % | barometer mb |
| 20260507121551 | 56 | 51 | 4.3 | 7.8 | 0.00 | 0.00 | 0.00 | 56 | 1018.3 |
| 20260507120038 | 56 | 57 | 3.5 | 6.1 | 0.00 | 0.00 | 0.00 | 55 | 1018.3 |
| 20260507114536 | 55 | 57 | 4.3 | 7.8 | 0.00 | 0.00 | 0.00 | 56 | 1018.2 |
| 20260507113034 | 55 | 94 | 4.3 | 8.7 | 0.00 | 0.00 | 0.00 | 58 | 1018.3 |
| 20260507111537 | 55 | 55 | 5.2 | 10.4 | 0.00 | 0.00 | 0.00 | 58 | 1018.3 |
| 20260507110035 | 54 | 54 | 6.1 | 9.6 | 0.00 | 0.00 | 0.00 | 57 | 1018.3 |
| 20260507104534 | 54 | 60 | 5.2 | 10.4 | 0.00 | 0.00 | 0.00 | 57 | 1018.2 |
| 20260507103035 | 53 | 86 | 5.2 | 9.6 | 0.00 | 0.00 | 0.00 | 59 | 1018.1 |
| 20260507101532 | 53 | 55 | 7.0 | 11.3 | 0.00 | 0.00 | 0.00 | 59 | 1018.1 |
| 20260507100047 | 52 | 42 | 6.1 | 11.3 | 0.00 | 0.00 | 0.00 | 58 | 1017.9 |
| 20260507094547 | 52 | 62 | 8.7 | 12.2 | 0.00 | 0.00 | 0.00 | 57 | 1017.8 |
| 20260507093046 | 51 | 70 | 9.6 | 12.2 | 0.00 | 0.00 | 0.00 | 58 | 1017.8 |
| 20260507091546 | 51 | 72 | 8.7 | 13.0 | 0.00 | 0.00 | 0.00 | 56 | 1017.7 |
| 20260507090045 | 51 | 61 | 8.7 | 12.2 | 0.00 | 0.00 | 0.00 | 54 | 1017.7 |
| 20260507084546 | 51 | 71 | 8.7 | 12.2 | 0.00 | 0.00 | 0.00 | 52 | 1017.7 |
| 20260507083047 | 51 | 64 | 8.7 | 12.2 | 0.00 | 0.00 | 0.00 | 49 | 1017.6 |
| 20260507081543 | 50 | 71 | 6.1 | 12.2 | 0.00 | 0.00 | 0.00 | 51 | 1017.5 |
| 20260507080039 | 50 | 65 | 3.5 | 11.3 | 0.00 | 0.00 | 0.00 | 56 | 1017.3 |
| 20260507074535 | 50 | 60 | 6.1 | 9.6 | 0.00 | 0.00 | 0.00 | 50 | 1017.1 |
| 20260507073034 | 49 | 61 | 6.1 | 10.4 | 0.00 | 0.00 | 0.00 | 49 | 1017.1 |
| 20260507071533 | 48 | 57 | 3.5 | 5.2 | 0.00 | 0.00 | 0.00 | 51 | 1017.1 |
| 20260507070030 | 48 | 34 | 4.3 | 9.6 | 0.00 | 0.00 | 0.00 | 46 | 1017.0 |
| 20260507064529 | 47 | 38 | 5.2 | 9.6 | 0.00 | 0.00 | 0.00 | 48 | 1016.8 |
| 20260507063031 | 46 | 37 | 4.3 | 9.6 | 0.00 | 0.00 | 0.00 | 50 | 1016.8 |
| 20260507061529 | 44 | 44 | 4.3 | 9.6 | 0.00 | 0.00 | 0.00 | 54 | 1016.8 |
| 20260507060026 | 43 | 43 | 1.7 | 4.3 | 0.00 | 0.00 | 0.00 | 56 | 1016.7 |
| 20260507054524 | 42 | 17 | 0.9 | 4.3 | 0.00 | 0.00 | 0.00 | 58 | 1016.6 |
| 20260507053024 | 41 | 10 | 1.7 | 4.3 | 0.00 | 0.00 | 0.00 | 59 | 1016.5 |
| 20260507051522 | 39 | 22 | 2.6 | 7.8 | 0.00 | 0.00 | 0.00 | 63 | 1016.4 |
| 20260507050036 | 37 | 19 | 1.7 | 5.2 | 0.00 | 0.00 | 0.00 | 67 | 1016.3 |
| 20260507044529 | 36 | 278 | 0.9 | 4.3 | 0.00 | 0.00 | 0.00 | 70 | 1016.2 |
| 20260507043027 | 35 | 287 | 0.9 | 4.3 | 0.00 | 0.00 | 0.00 | 71 | 1016.1 |
| 20260507041542 | 35 | 268 | 1.7 | 3.5 | 0.00 | 0.00 | 0.00 | 71 | 1016.0 |
| 20260507040016 | 35 | 360 | 0.9 | 3.5 | 0.00 | 0.00 | 0.00 | 70 | 1015.9 |
| 20260507034515 | 35 | 268 | 0.9 | 3.5 | 0.00 | 0.00 | 0.00 | 70 | 1015.7 |
| 20260507033014 | 35 | 264 | 0.9 | 3.5 | 0.00 | 0.00 | 0.00 | 69 | 1015.6 |
| 20260507031511 | 35 | 5 | 0.9 | 2.6 | 0.00 | 0.00 | 0.00 | 69 | 1015.5 |
| 20260507030012 | 36 | 5 | 0.9 | 5.2 | 0.00 | 0.00 | 0.00 | 69 | 1015.4 |
| 20260507024510 | 36 | 265 | 0.9 | 4.3 | 0.00 | 0.00 | 0.00 | 69 | 1015.4 |
| 20260507023008 | 37 | 268 | 0.9 | 2.6 | 0.00 | 0.00 | 0.00 | 67 | 1015.2 |
| 20260507021505 | 37 | 36 | 1.7 | 4.3 | 0.00 | 0.00 | 0.00 | 64 | 1015.2 |
| 20260507020006 | 37 | 11 | 0.0 | 1.7 | 0.00 | 0.00 | 0.00 | 63 | 1015.1 |
| 20260507014510 | 38 | 11 | 0.0 | 1.7 | 0.00 | 0.00 | 0.00 | 62 | 1015.0 |
| 20260507013115 | 39 | 12 | 0.0 | 2.6 | 0.00 | 0.00 | 0.00 | 61 | 1014.9 |
| 20260507011557 | 40 | 290 | 0.9 | 1.7 | 0.00 | 0.00 | 0.00 | 59 | 1014.8 |
| 20260507010003 | 40 | 9 | 0.9 | 4.3 | 0.00 | 0.00 | 0.00 | 57 | 1014.7 |
| 20260507004600 | 40 | 247 | 0.9 | 7.8 | 0.00 | 0.00 | 0.00 | 55 | 1014.7 |
| 20260507003059 | 40 | 296 | 0.9 | 6.1 | 0.00 | 0.00 | 0.00 | 55 | 1014.6 |
| 20260507001620 | 41 | 5 | 0.9 | 4.3 | 0.00 | 0.00 | 0.00 | 55 | 1014.5 |
| 20260507000042 | 42 | 242 | 0.9 | 4.3 | 0.00 | 0.00 | 0.00 | 55 | 1014.4 |
| 20260506234539 | 42 | 244 | 2.6 | 6.1 | 0.00 | 0.00 | 0.00 | 52 | 1014.3 |
| 20260506233043 | 42 | 246 | 2.6 | 6.1 | 0.00 | 0.00 | 0.00 | 51 | 1014.3 |
| 20260506231540 | 42 | 262 | 1.7 | 5.2 | 0.00 | 0.00 | 0.00 | 51 | 1014.2 |
| 20260506230044 | 43 | 264 | 2.6 | 8.7 | 0.00 | 0.00 | 0.00 | 51 | 1014.2 |
| 20260506224542 | 43 | 248 | 3.5 | 9.6 | 0.00 | 0.00 | 0.00 | 50 | 1014.0 |
| 20260506223051 | 43 | 263 | 3.5 | 7.8 | 0.00 | 0.00 | 0.00 | 51 | 1014.0 |
| 20260506221537 | 44 | 258 | 1.7 | 6.1 | 0.00 | 0.00 | 0.00 | 49 | 1014.0 |
| 20260506220030 | 45 | 237 | 3.5 | 10.4 | 0.00 | 0.00 | 0.00 | 48 | 1013.8 |
| 20260506214528 | 45 | 225 | 5.2 | 10.4 | 0.00 | 0.00 | 0.00 | 47 | 1013.6 |
| 20260506213026 | 45 | 262 | 5.2 | 10.4 | 0.00 | 0.00 | 0.00 | 47 | 1013.5 |
| 20260506211524 | 46 | 259 | 6.1 | 12.2 | 0.00 | 0.00 | 0.00 | 46 | 1013.3 |
| 20260506210021 | 46 | 232 | 7.8 | 13.0 | 0.00 | 0.00 | 0.00 | 46 | 1013.3 |
| 20260506204519 | 46 | 238 | 6.1 | 10.4 | 0.00 | 0.00 | 0.00 | 47 | 1013.2 |
| 20260506203021 | 47 | 238 | 7.0 | 12.2 | 0.00 | 0.00 | 0.00 | 47 | 1013.1 |
| 20260506201513 | 48 | 229 | 5.2 | 10.4 | 0.00 | 0.00 | 0.00 | 46 | 1013.0 |
| 20260506200015 | 48 | 235 | 5.2 | 12.2 | 0.00 | 0.00 | 0.00 | 45 | 1013.0 |
| 20260506194513 | 49 | 243 | 4.3 | 12.2 | 0.00 | 0.00 | 0.00 | 45 | 1012.9 |
| 20260506193010 | 49 | 271 | 4.3 | 10.4 | 0.00 | 0.00 | 0.00 | 44 | 1012.8 |
| 20260506191510 | 49 | 242 | 3.5 | 7.8 | 0.00 | 0.00 | 0.00 | 50 | 1012.6 |
| 20260506190100 | 49 | 234 | 4.3 | 10.4 | 0.00 | 0.00 | 0.00 | 56 | 1012.5 |
| 20260506184558 | 50 | 195 | 0.0 | 2.6 | 0.00 | 0.00 | 0.00 | 65 | 1012.4 |
| 20260506183057 | 50 | 159 | 0.0 | 1.7 | 0.00 | 0.00 | 0.00 | 65 | 1012.2 |
| 20260506181555 | 51 | 159 | 0.0 | 2.6 | 0.00 | 0.00 | 0.00 | 66 | 1012.2 |
| 20260506180005 | 52 | 156 | 0.0 | 2.6 | 0.00 | 0.00 | 0.00 | 67 | 1012.1 |
| 20260506174504 | 53 | 159 | 0.9 | 3.5 | 0.00 | 0.00 | 0.00 | 60 | 1012.1 |
| 20260506173004 | 54 | 160 | 1.7 | 5.2 | 0.00 | 0.00 | 0.00 | 57 | 1011.9 |
| 20260506171505 | 55 | 157 | 2.6 | 7.0 | 0.00 | 0.00 | 0.00 | 55 | 1011.9 |
| 20260506170059 | 55 | 176 | 2.6 | 6.1 | 0.00 | 0.00 | 0.00 | 54 | 1012.0 |
| 20260506164557 | 55 | 161 | 3.5 | 7.8 | 0.00 | 0.00 | 0.00 | 52 | 1012.1 |
| 20260506163100 | 55 | 173 | 3.5 | 9.6 | 0.00 | 0.00 | 0.00 | 49 | 1012.2 |
| 20260506161558 | 55 | 173 | 3.5 | 8.7 | 0.00 | 0.00 | 0.00 | 48 | 1012.3 |
| 20260506160106 | 55 | 173 | 4.3 | 9.6 | 0.00 | 0.00 | 0.00 | 47 | 1012.3 |
| 20260506154553 | 53 | 150 | 3.5 | 7.8 | 0.00 | 0.00 | 0.00 | 64 | 1012.5 |
| 20260506153051 | 52 | 166 | 2.6 | 4.3 | 0.00 | 0.00 | 0.00 | 69 | 1012.5 |
| 20260506151549 | 51 | 126 | 5.2 | 8.7 | 0.00 | 0.00 | 0.00 | 72 | 1012.6 |
| 20260506150007 | 51 | 130 | 4.3 | 7.8 | 0.00 | 0.00 | 0.00 | 72 | 1012.7 |
| 20260506144501 | 52 | 149 | 3.5 | 7.8 | 0.00 | 0.00 | 0.00 | 69 | 1012.9 |
| 20260506143059 | 54 | 134 | 2.6 | 7.0 | 0.00 | 0.00 | 0.00 | 66 | 1013.0 |
| 20260506141558 | 55 | 135 | 4.3 | 7.8 | 0.00 | 0.00 | 0.00 | 62 | 1013.0 |
| 20260506140042 | 55 | 144 | 5.2 | 7.8 | 0.00 | 0.00 | 0.00 | 60 | 1013.2 |
| 20260506134605 | 55 | 175 | 5.2 | 9.6 | 0.00 | 0.00 | 0.00 | 56 | 1013.3 |
| 20260506133030 | 55 | 115 | 5.2 | 8.7 | 0.00 | 0.00 | 0.00 | 55 | 1013.4 |
| 20260506131528 | 54 | 150 | 5.2 | 10.4 | 0.00 | 0.00 | 0.00 | 55 | 1013.6 |
| 20260506130056 | 54 | 156 | 5.2 | 9.6 | 0.00 | 0.00 | 0.00 | 47 | 1013.6 |
| 20260506124552 | 53 | 160 | 6.1 | 12.2 | 0.00 | 0.00 | 0.00 | 43 | 1013.6 |
| 20260506123048 | 52 | 179 | 5.2 | 8.7 | 0.00 | 0.00 | 0.00 | 46 | 1013.7 |